createdAt,value
2019-03-19T00:00:32.141Z,21.80
2019-03-19T00:03:01.838Z,20.60
2019-03-19T00:05:31.391Z,21.00
2019-03-19T00:08:00.967Z,19.95
2019-03-19T00:10:30.524Z,20.10
2019-03-19T00:13:00.078Z,19.42
2019-03-19T00:15:29.673Z,18.73
2019-03-19T00:17:59.224Z,19.00
2019-03-19T00:20:28.801Z,19.57
2019-03-19T00:22:59.521Z,19.32
2019-03-19T00:25:30.533Z,18.92
2019-03-19T00:28:00.260Z,18.57
2019-03-19T00:30:29.855Z,17.62
2019-03-19T00:32:59.412Z,18.60
2019-03-19T00:35:28.980Z,18.57
2019-03-19T00:37:58.526Z,17.87
2019-03-19T00:40:28.080Z,17.55
2019-03-19T00:42:57.721Z,17.07
2019-03-19T00:45:27.264Z,17.27
2019-03-19T00:47:57.158Z,17.10
2019-03-19T00:50:26.696Z,17.82
2019-03-19T00:52:56.243Z,17.02
2019-03-19T00:55:25.826Z,16.95
2019-03-19T00:57:55.393Z,17.35
2019-03-19T01:00:25.341Z,17.07
2019-03-19T01:02:55.103Z,16.37
2019-03-19T01:05:24.654Z,17.55
2019-03-19T01:07:54.522Z,16.02
2019-03-19T01:10:24.080Z,17.42
2019-03-19T01:12:53.643Z,16.93
2019-03-19T01:15:23.246Z,16.62
2019-03-19T01:17:52.804Z,16.57
2019-03-19T01:20:22.374Z,15.13
2019-03-19T01:22:52.129Z,16.37
2019-03-19T01:25:21.665Z,16.20
2019-03-19T01:27:51.151Z,16.55
2019-03-19T01:30:20.753Z,16.55
2019-03-19T01:32:50.312Z,15.78
2019-03-19T01:35:19.868Z,16.02
2019-03-19T01:37:49.453Z,16.07
2019-03-19T01:40:19.010Z,15.35
2019-03-19T01:42:48.937Z,15.08
2019-03-19T01:45:19.301Z,15.23
2019-03-19T01:47:48.858Z,14.75
2019-03-19T01:50:18.708Z,15.53
2019-03-19T01:52:49.205Z,15.25
2019-03-19T01:55:18.808Z,15.18
2019-03-19T01:57:48.357Z,14.55
2019-03-19T02:00:18.824Z,14.45
2019-03-19T02:02:48.369Z,14.58
2019-03-19T02:05:17.922Z,14.60
2019-03-19T02:07:47.498Z,14.80
2019-03-19T02:10:17.061Z,14.47
2019-03-19T02:12:46.616Z,13.75
2019-03-19T02:15:17.070Z,14.68
2019-03-19T02:17:46.667Z,12.98
2019-03-19T02:20:17.159Z,14.47
2019-03-19T02:22:47.088Z,13.13
2019-03-19T02:25:18.179Z,12.43
2019-03-19T02:27:47.739Z,12.20
2019-03-19T02:30:17.522Z,13.35
2019-03-19T02:32:47.415Z,11.63
2019-03-19T02:35:16.965Z,12.80
2019-03-19T02:37:46.533Z,11.75
2019-03-19T02:40:16.850Z,11.38
2019-03-19T02:42:47.732Z,11.12
2019-03-19T02:45:17.283Z,11.48
2019-03-19T02:47:46.853Z,10.65
2019-03-19T02:50:18.155Z,10.90
2019-03-19T02:52:47.739Z,10.68
2019-03-19T02:55:17.312Z,11.00
2019-03-19T02:57:46.864Z,10.38
2019-03-19T03:00:17.420Z,9.90
2019-03-19T03:02:47.037Z,10.38
2019-03-19T03:05:18.559Z,10.93
2019-03-19T03:07:49.167Z,10.38
2019-03-19T03:10:18.695Z,10.00
2019-03-19T03:12:48.248Z,9.85
2019-03-19T03:15:17.826Z,9.90
2019-03-19T03:17:47.396Z,10.05
2019-03-19T03:20:17.289Z,9.85
2019-03-19T03:22:46.858Z,9.65
2019-03-19T03:25:17.350Z,9.58
2019-03-19T03:27:46.928Z,9.08
2019-03-19T03:30:23.195Z,9.15
2019-03-19T03:32:52.766Z,9.13
2019-03-19T03:35:22.419Z,9.40
2019-03-19T03:37:52.137Z,9.13
2019-03-19T03:40:21.685Z,10.10
2019-03-19T03:42:51.250Z,8.58
2019-03-19T03:45:20.855Z,9.20
2019-03-19T03:47:50.427Z,8.50
2019-03-19T03:50:19.963Z,9.00
2019-03-19T03:52:49.608Z,8.33
2019-03-19T03:55:20.204Z,8.78
2019-03-19T03:57:49.759Z,8.60
2019-03-19T04:00:22.453Z,9.60
2019-03-19T04:02:52.025Z,9.78
2019-03-19T04:05:21.576Z,9.48
2019-03-19T04:07:51.195Z,9.10
2019-03-19T04:10:21.148Z,8.35
2019-03-19T04:12:51.089Z,9.33
2019-03-19T04:15:20.674Z,9.33
2019-03-19T04:17:50.216Z,9.20
2019-03-19T04:20:19.792Z,8.73
2019-03-19T04:22:49.697Z,8.75
2019-03-19T04:25:20.276Z,9.40
2019-03-19T04:27:49.806Z,8.63
2019-03-19T04:30:20.109Z,8.55
2019-03-19T04:32:49.648Z,8.83
2019-03-19T04:35:19.188Z,8.68
2019-03-19T04:37:48.780Z,8.90
2019-03-19T04:40:18.317Z,8.73
2019-03-19T04:42:47.928Z,8.20
2019-03-19T04:45:17.715Z,8.75
2019-03-19T04:47:47.280Z,8.30
2019-03-19T04:50:17.338Z,8.50
2019-03-19T04:52:46.928Z,8.35
2019-03-19T04:55:17.091Z,7.80
2019-03-19T04:57:46.631Z,7.95
2019-03-19T05:00:17.118Z,7.83
2019-03-19T05:02:47.247Z,7.78
2019-03-19T05:05:16.807Z,8.45
2019-03-19T05:07:48.219Z,8.40
2019-03-19T05:10:18.376Z,7.65
2019-03-19T05:12:47.903Z,7.30
2019-03-19T05:15:18.610Z,7.35
2019-03-19T05:17:48.521Z,7.47
2019-03-19T05:20:19.663Z,7.20
2019-03-19T05:22:49.202Z,7.40
2019-03-19T05:25:19.128Z,7.20
2019-03-19T05:27:48.743Z,7.80
2019-03-19T05:30:19.191Z,7.17
2019-03-19T05:32:48.769Z,7.08
2019-03-19T05:35:18.354Z,7.22
2019-03-19T05:37:47.916Z,7.45
2019-03-19T05:40:17.760Z,7.15
2019-03-19T05:42:47.680Z,7.12
2019-03-19T05:45:17.214Z,7.60
2019-03-19T05:47:46.759Z,6.97
2019-03-19T05:50:18.060Z,6.95
2019-03-19T05:52:48.627Z,6.80
2019-03-19T05:55:18.424Z,7.35
2019-03-19T05:57:49.976Z,6.92
2019-03-19T06:00:21.706Z,6.35
2019-03-19T06:02:51.260Z,6.95
2019-03-19T06:05:21.323Z,7.00
2019-03-19T06:07:52.220Z,6.95
2019-03-19T06:10:21.785Z,6.55
2019-03-19T06:12:51.353Z,6.03
2019-03-19T06:15:20.918Z,6.37
2019-03-19T06:17:50.526Z,6.78
2019-03-19T06:20:20.624Z,6.28
2019-03-19T06:22:50.233Z,6.62
2019-03-19T06:25:19.811Z,6.03
2019-03-19T06:27:59.576Z,6.20
2019-03-19T06:30:24.077Z,6.67
2019-03-19T06:32:53.629Z,6.35
2019-03-19T06:35:23.189Z,6.30
2019-03-19T06:37:53.097Z,6.15
2019-03-19T06:40:23.043Z,6.00
2019-03-19T06:42:52.589Z,6.33
2019-03-19T06:45:23.185Z,6.15
2019-03-19T06:47:53.237Z,6.22
2019-03-19T06:50:22.764Z,6.03
2019-03-19T06:52:52.867Z,6.17
2019-03-19T06:55:22.473Z,6.08
2019-03-19T06:57:51.987Z,5.83
2019-03-19T07:00:22.854Z,6.67
2019-03-19T07:02:52.363Z,6.40
2019-03-19T07:05:22.245Z,5.70
2019-03-19T07:07:51.830Z,6.55
2019-03-19T07:10:21.763Z,5.83
2019-03-19T07:12:51.321Z,5.75
2019-03-19T07:15:23.266Z,5.90
2019-03-19T07:17:52.805Z,5.72
2019-03-19T07:20:29.572Z,5.60
2019-03-19T07:22:59.422Z,5.33
2019-03-19T07:25:28.975Z,5.30
2019-03-19T07:27:58.552Z,5.20
2019-03-19T07:30:28.322Z,4.75
2019-03-19T07:32:57.861Z,4.97
2019-03-19T07:35:27.445Z,4.85
2019-03-19T07:37:57.271Z,4.60
2019-03-19T07:40:26.818Z,5.30
2019-03-19T07:42:56.314Z,4.70
2019-03-19T07:45:26.064Z,4.70
2019-03-19T07:47:55.651Z,4.78
2019-03-19T07:50:25.187Z,4.55
2019-03-19T07:52:54.738Z,4.85
2019-03-19T07:55:24.385Z,4.85
2019-03-19T07:57:54.209Z,4.65
2019-03-19T08:00:23.790Z,4.87
2019-03-19T08:02:53.333Z,4.47
2019-03-19T08:05:32.658Z,5.10
2019-03-19T08:07:54.779Z,4.83
2019-03-19T08:10:24.312Z,4.42
2019-03-19T08:12:53.921Z,4.47
2019-03-19T08:15:23.481Z,4.75
2019-03-19T08:17:53.227Z,4.65
2019-03-19T08:20:22.987Z,4.72
2019-03-19T08:22:52.550Z,4.12
2019-03-19T08:25:22.097Z,4.80
2019-03-19T08:27:51.562Z,4.22
2019-03-19T08:30:24.191Z,4.60
2019-03-19T08:32:53.520Z,4.50
2019-03-19T08:35:23.062Z,4.40
2019-03-19T08:37:52.933Z,4.10
2019-03-19T08:40:22.490Z,4.62
2019-03-19T08:42:52.061Z,4.60
2019-03-19T08:45:23.686Z,4.55
2019-03-19T08:47:53.227Z,4.83
2019-03-19T08:50:23.520Z,4.60
2019-03-19T08:52:55.399Z,4.12
2019-03-19T08:55:24.713Z,4.65
2019-03-19T08:57:54.266Z,4.62
2019-03-19T09:00:28.482Z,4.65
2019-03-19T09:02:58.048Z,4.35
2019-03-19T09:05:27.605Z,4.42
2019-03-19T09:07:57.146Z,4.45
2019-03-19T09:10:26.713Z,4.95
2019-03-19T09:12:56.360Z,4.33
2019-03-19T09:15:29.056Z,4.50
2019-03-19T09:17:58.622Z,4.80
2019-03-19T09:20:28.158Z,4.40
2019-03-19T09:22:57.713Z,4.53
2019-03-19T09:25:27.265Z,4.10
2019-03-19T09:27:56.973Z,4.22
2019-03-19T09:30:27.513Z,4.37
2019-03-19T09:32:57.066Z,4.25
2019-03-19T09:35:26.639Z,4.40
2019-03-19T09:37:58.753Z,4.05
2019-03-19T09:40:27.799Z,4.20
2019-03-19T09:42:57.325Z,3.70
2019-03-19T09:45:26.897Z,4.08
2019-03-19T09:47:56.459Z,3.80
2019-03-19T09:50:26.516Z,3.80
2019-03-19T09:52:56.112Z,3.65
2019-03-19T09:55:25.619Z,3.67
2019-03-19T09:57:55.519Z,3.85
2019-03-19T10:00:25.068Z,3.90
2019-03-19T10:02:54.623Z,3.72
2019-03-19T10:05:24.185Z,3.45
2019-03-19T10:07:55.560Z,3.37
2019-03-19T10:10:25.302Z,3.47
2019-03-19T10:12:54.814Z,3.30
2019-03-19T10:15:24.374Z,3.20
2019-03-19T10:17:53.923Z,3.33
2019-03-19T10:20:25.330Z,3.22
2019-03-19T10:22:55.040Z,3.05
2019-03-19T10:25:24.586Z,2.90
2019-03-19T10:27:55.130Z,2.80
2019-03-19T10:30:24.910Z,3.17
2019-03-19T10:32:54.449Z,2.98
2019-03-19T10:35:23.971Z,3.10
2019-03-19T10:37:53.505Z,2.40
2019-03-19T10:40:23.048Z,2.95
2019-03-19T10:42:52.590Z,2.62
2019-03-19T10:45:25.380Z,2.60
2019-03-19T10:47:55.044Z,2.60
2019-03-19T10:50:25.386Z,2.52
2019-03-19T10:52:54.938Z,2.55
2019-03-19T10:55:25.363Z,2.67
2019-03-19T10:57:54.913Z,3.25
2019-03-19T11:00:25.355Z,2.75
2019-03-19T11:02:54.905Z,2.70
2019-03-19T11:05:25.047Z,2.75
2019-03-19T11:07:54.985Z,2.45
2019-03-19T11:10:24.524Z,2.50
2019-03-19T11:12:54.189Z,2.58
2019-03-19T11:15:27.421Z,2.55
2019-03-19T11:17:57.024Z,2.72
2019-03-19T11:20:26.931Z,2.47
2019-03-19T11:22:56.818Z,2.50
2019-03-19T11:25:28.546Z,2.40
2019-03-19T11:27:58.108Z,2.65
2019-03-19T11:30:31.163Z,2.40
2019-03-19T11:33:00.715Z,2.77
2019-03-19T11:35:30.270Z,2.83
2019-03-19T11:37:59.810Z,2.45
2019-03-19T11:40:29.377Z,2.80
2019-03-19T11:42:58.961Z,2.42
2019-03-19T11:45:28.509Z,2.72
2019-03-19T11:47:58.050Z,2.60
2019-03-19T11:50:33.752Z,2.60
2019-03-19T11:53:04.254Z,2.62
2019-03-19T11:55:33.784Z,2.37
2019-03-19T11:58:03.366Z,2.60
2019-03-19T12:00:34.494Z,2.45
2019-03-19T12:03:14.881Z,2.50
2019-03-19T12:05:35.818Z,2.40
2019-03-19T12:08:06.761Z,2.33
2019-03-19T12:10:36.384Z,2.40
2019-03-19T12:13:05.916Z,2.27
2019-03-19T12:15:35.457Z,2.60
2019-03-19T12:18:05.615Z,2.40
2019-03-19T12:20:35.587Z,2.47
2019-03-19T12:23:05.546Z,1.72
2019-03-19T12:25:35.090Z,2.20
2019-03-19T12:28:05.203Z,2.37
2019-03-19T12:30:34.749Z,1.90
2019-03-19T12:33:04.615Z,1.90
2019-03-19T12:35:34.198Z,2.02
2019-03-19T12:38:03.742Z,2.20
2019-03-19T12:40:37.203Z,1.95
2019-03-19T12:43:04.567Z,2.20
2019-03-19T12:45:34.115Z,2.02
2019-03-19T12:48:03.718Z,1.90
2019-03-19T12:50:33.278Z,2.30
2019-03-19T12:53:02.833Z,1.75
2019-03-19T12:55:32.382Z,2.60
2019-03-19T12:58:04.295Z,2.35
2019-03-19T13:00:35.018Z,2.87
2019-03-19T13:03:04.943Z,2.30
2019-03-19T13:05:34.552Z,3.60
2019-03-19T13:08:04.082Z,2.37
2019-03-19T13:10:33.562Z,2.50
2019-03-19T13:13:03.117Z,2.20
2019-03-19T13:15:32.681Z,2.10
2019-03-19T13:18:02.261Z,2.20
2019-03-19T13:20:31.806Z,2.25
2019-03-19T13:23:01.371Z,2.17
2019-03-19T13:25:30.911Z,2.17
2019-03-19T13:28:00.471Z,2.12
2019-03-19T13:30:31.159Z,2.20
2019-03-19T13:33:02.599Z,1.90
2019-03-19T13:35:32.501Z,1.98
2019-03-19T13:38:02.047Z,3.40
2019-03-19T13:40:31.597Z,2.60
2019-03-19T13:43:01.153Z,2.20
2019-03-19T13:45:30.703Z,2.37
2019-03-19T13:48:00.268Z,2.27
2019-03-19T13:50:29.826Z,2.15
2019-03-19T13:52:59.370Z,2.42
2019-03-19T13:55:28.944Z,2.12
2019-03-19T13:57:58.611Z,2.00
2019-03-19T14:00:29.057Z,2.08
2019-03-19T14:02:59.367Z,2.30
2019-03-19T14:05:28.987Z,2.55
2019-03-19T14:07:58.856Z,2.22
2019-03-19T14:10:29.333Z,2.65
2019-03-19T14:12:58.897Z,2.08
2019-03-19T14:15:28.781Z,2.12
2019-03-19T14:17:59.212Z,2.40
2019-03-19T14:20:28.758Z,2.35
2019-03-19T14:22:58.315Z,2.02
2019-03-19T14:25:27.909Z,2.72
2019-03-19T14:27:57.748Z,3.80
2019-03-19T14:30:27.289Z,3.75
2019-03-19T14:32:56.857Z,5.33
2019-03-19T14:35:36.613Z,4.30
2019-03-19T14:37:57.893Z,3.67
2019-03-19T14:40:27.429Z,3.30
2019-03-19T14:43:00.047Z,4.40
2019-03-19T14:45:28.427Z,4.45
2019-03-19T14:47:58.276Z,7.05
2019-03-19T14:50:27.863Z,11.05
2019-03-19T14:52:57.407Z,8.18
2019-03-19T14:55:26.975Z,8.55
2019-03-19T14:57:56.517Z,6.67
2019-03-19T15:00:26.074Z,6.70
2019-03-19T15:02:56.011Z,6.12
2019-03-19T15:05:25.546Z,6.60
2019-03-19T15:07:55.479Z,6.78
2019-03-19T15:10:25.022Z,5.80
2019-03-19T15:12:54.603Z,5.60
2019-03-19T15:15:24.508Z,5.28
2019-03-19T15:17:54.058Z,5.35
2019-03-19T15:20:25.711Z,5.15
2019-03-19T15:22:55.256Z,4.62
2019-03-19T15:25:24.821Z,5.33
2019-03-19T15:27:54.680Z,5.05
2019-03-19T15:30:24.222Z,5.28
2019-03-19T15:32:54.180Z,4.70
2019-03-19T15:35:23.724Z,4.62
2019-03-19T15:37:53.369Z,5.10
2019-03-19T15:40:22.915Z,5.08
2019-03-19T15:42:52.819Z,5.10
2019-03-19T15:45:24.652Z,4.17
2019-03-19T15:47:54.191Z,4.80
2019-03-19T15:50:24.667Z,4.15
2019-03-19T15:52:54.221Z,5.35
2019-03-19T15:55:23.765Z,4.78
2019-03-19T15:57:53.343Z,4.62
2019-03-19T16:00:22.983Z,5.00
2019-03-19T16:02:52.506Z,5.05
2019-03-19T16:05:22.070Z,5.47
2019-03-19T16:07:51.604Z,4.53
2019-03-19T16:10:22.583Z,5.37
2019-03-19T16:12:52.139Z,4.47
2019-03-19T16:15:22.764Z,4.95
2019-03-19T16:17:52.319Z,7.45
2019-03-19T16:20:22.581Z,6.78
2019-03-19T16:22:52.125Z,5.62
2019-03-19T16:25:21.706Z,5.90
2019-03-19T16:27:52.142Z,5.53
2019-03-19T16:30:21.712Z,5.60
2019-03-19T16:32:51.269Z,6.55
2019-03-19T16:35:20.807Z,7.17
2019-03-19T16:37:50.383Z,6.22
2019-03-19T16:40:21.882Z,5.70
2019-03-19T16:42:51.419Z,5.12
2019-03-19T16:45:20.993Z,5.55
2019-03-19T16:47:50.882Z,5.20
2019-03-19T16:50:21.363Z,5.10
2019-03-19T16:52:50.956Z,5.20
2019-03-19T16:55:22.204Z,5.20
2019-03-19T16:57:52.092Z,5.45
2019-03-19T17:00:27.032Z,5.10
2019-03-19T17:02:56.597Z,5.60
2019-03-19T17:05:26.143Z,5.10
2019-03-19T17:07:55.678Z,5.80
2019-03-19T17:10:32.824Z,5.67
2019-03-19T17:13:02.386Z,5.65
2019-03-19T17:15:31.959Z,5.70
2019-03-19T17:18:01.530Z,6.20
2019-03-19T17:20:31.561Z,5.60
2019-03-19T17:23:01.218Z,5.40
2019-03-19T17:25:30.762Z,5.35
2019-03-19T17:28:00.623Z,5.10
2019-03-19T17:30:35.533Z,5.37
2019-03-19T17:33:05.090Z,5.08
2019-03-19T17:35:34.684Z,5.67
2019-03-19T17:38:04.177Z,6.33
2019-03-19T17:40:41.434Z,6.20
2019-03-19T17:43:05.228Z,7.10
2019-03-19T17:45:34.813Z,6.83
2019-03-19T17:48:15.467Z,6.37
2019-03-19T17:50:38.596Z,7.03
2019-03-19T17:53:08.142Z,6.35
2019-03-19T17:55:37.695Z,6.58
2019-03-19T17:58:07.539Z,7.15
2019-03-19T18:00:44.661Z,7.75
2019-03-19T18:03:15.016Z,9.68
2019-03-19T18:05:44.977Z,7.60
2019-03-19T18:08:14.534Z,7.65
2019-03-19T18:10:44.125Z,8.48
2019-03-19T18:13:13.694Z,9.75
2019-03-19T18:15:43.245Z,9.45
2019-03-19T18:18:12.805Z,8.28
2019-03-19T18:20:42.347Z,8.80
2019-03-19T18:23:12.338Z,9.03
2019-03-19T18:25:41.836Z,8.95
2019-03-19T18:28:12.392Z,9.48
2019-03-19T18:30:41.942Z,12.13
2019-03-19T18:33:11.507Z,17.32
2019-03-19T18:35:41.399Z,13.98
2019-03-19T18:38:11.170Z,13.05
2019-03-19T18:40:40.734Z,13.75
2019-03-19T18:43:10.638Z,14.50
2019-03-19T18:45:40.518Z,12.47
2019-03-19T18:48:11.618Z,13.43
2019-03-19T18:50:41.578Z,12.28
2019-03-19T18:53:11.410Z,15.95
2019-03-19T18:55:40.978Z,18.82
2019-03-19T18:58:10.523Z,20.90
2019-03-19T19:00:40.093Z,18.70
2019-03-19T19:03:09.919Z,19.70
2019-03-19T19:05:39.474Z,31.25
2019-03-19T19:08:09.068Z,28.17
2019-03-19T19:10:39.155Z,22.50
2019-03-19T19:13:09.110Z,21.45
2019-03-19T19:15:38.651Z,22.00
2019-03-19T19:18:09.764Z,20.60
2019-03-19T19:20:39.362Z,20.10
2019-03-19T19:23:12.001Z,18.92
2019-03-19T19:25:42.331Z,17.20
2019-03-19T19:28:11.917Z,17.35
2019-03-19T19:30:41.862Z,17.75
2019-03-19T19:33:11.415Z,16.12
2019-03-19T19:35:40.967Z,15.68
2019-03-19T19:38:10.585Z,14.23
2019-03-19T19:40:41.262Z,14.20
2019-03-19T19:43:10.867Z,15.23
2019-03-19T19:45:41.990Z,14.93
2019-03-19T19:48:13.647Z,14.80
2019-03-19T19:50:43.639Z,14.60
2019-03-19T19:53:15.791Z,17.65
2019-03-19T19:55:45.184Z,15.23
2019-03-19T19:58:15.053Z,15.58
2019-03-19T20:00:44.651Z,15.35
2019-03-19T20:03:14.213Z,16.05
2019-03-19T20:05:43.767Z,15.90
2019-03-19T20:08:14.478Z,15.45
2019-03-19T20:10:44.447Z,16.42
2019-03-19T20:13:14.105Z,15.72
2019-03-19T20:15:43.678Z,15.83
2019-03-19T20:18:14.816Z,15.30
2019-03-19T20:20:44.770Z,15.63
2019-03-19T20:23:14.399Z,15.38
2019-03-19T20:25:43.971Z,14.85
2019-03-19T20:28:13.510Z,14.60
2019-03-19T20:30:43.340Z,14.45
2019-03-19T20:33:24.222Z,13.72
2019-03-19T20:35:44.218Z,15.38
2019-03-19T20:38:13.799Z,15.25
2019-03-19T20:40:43.346Z,15.90
2019-03-19T20:43:12.887Z,16.80
2019-03-19T20:45:42.600Z,17.40
2019-03-19T20:51:09.491Z,18.87
2019-03-19T20:53:39.065Z,18.45
2019-03-19T20:56:08.638Z,20.00
2019-03-19T20:58:43.570Z,19.45
2019-03-19T21:01:09.509Z,19.07
2019-03-19T21:03:39.097Z,19.52
2019-03-19T21:06:10.025Z,19.82
2019-03-19T21:08:39.967Z,19.02
2019-03-19T21:11:09.514Z,19.10
2019-03-19T21:13:39.514Z,19.57
2019-03-19T21:16:09.047Z,20.60
2019-03-19T21:18:38.609Z,20.35
2019-03-19T21:21:08.288Z,20.25
2019-03-19T21:23:37.855Z,20.60
2019-03-19T21:26:07.849Z,22.17
2019-03-19T21:28:37.405Z,22.22
2019-03-19T21:31:08.127Z,20.92
2019-03-19T21:33:37.654Z,21.40
2019-03-19T21:36:07.226Z,21.42
2019-03-19T21:38:36.786Z,20.97
2019-03-19T21:41:06.363Z,21.97
2019-03-19T21:43:36.047Z,21.05
2019-03-19T21:46:05.605Z,21.37
2019-03-19T21:48:35.172Z,20.45
2019-03-19T21:51:05.001Z,20.50
2019-03-19T21:53:34.558Z,20.30
2019-03-19T21:56:04.173Z,19.52
2019-03-19T21:58:33.776Z,19.40
2019-03-19T22:01:03.332Z,18.80
2019-03-19T22:03:34.006Z,18.40
2019-03-19T22:06:03.569Z,18.87
2019-03-19T22:08:33.149Z,19.50
2019-03-19T22:11:02.741Z,18.55
2019-03-19T22:13:32.637Z,17.98
2019-03-19T22:16:02.556Z,18.37
2019-03-19T22:18:32.095Z,20.15
2019-03-19T22:21:01.686Z,19.23
2019-03-19T22:23:31.499Z,18.40
2019-03-19T22:26:01.168Z,17.30
2019-03-19T22:28:30.732Z,17.90
2019-03-19T22:31:00.309Z,17.40
2019-03-19T22:33:33.651Z,18.00
2019-03-19T22:36:01.438Z,17.60
2019-03-19T22:38:31.089Z,16.77
2019-03-19T22:41:00.962Z,17.52
2019-03-19T22:43:30.522Z,17.23
2019-03-19T22:46:00.094Z,17.50
2019-03-19T22:48:29.998Z,18.05
2019-03-19T22:51:00.658Z,18.37
2019-03-19T22:53:31.366Z,18.42
2019-03-19T22:56:01.107Z,18.02
2019-03-19T22:58:30.643Z,17.25
2019-03-19T23:01:00.314Z,16.65
2019-03-19T23:03:31.462Z,17.42
2019-03-19T23:06:01.001Z,17.70
2019-03-19T23:08:30.602Z,17.87
2019-03-19T23:11:00.533Z,17.57
2019-03-19T23:13:30.101Z,18.35
2019-03-19T23:15:59.663Z,18.70
2019-03-19T23:18:29.357Z,20.02
2019-03-19T23:20:58.933Z,19.73
2019-03-19T23:23:28.482Z,20.82
2019-03-19T23:25:58.378Z,20.88
2019-03-19T23:28:27.949Z,20.52
2019-03-19T23:30:57.508Z,21.70
2019-03-19T23:33:27.100Z,22.70
2019-03-19T23:35:56.656Z,22.25
2019-03-19T23:38:26.221Z,21.52
2019-03-19T23:40:55.782Z,21.75
2019-03-19T23:43:26.443Z,23.12
2019-03-19T23:45:57.057Z,22.75
2019-03-19T23:48:26.597Z,22.10
2019-03-19T23:50:57.254Z,23.62
2019-03-19T23:53:28.010Z,23.47
2019-03-19T23:55:57.576Z,22.35
2019-03-19T23:58:27.165Z,22.75
